createdAt,value
2018-08-23T00:01:36.575Z,46.64
2018-08-23T00:04:12.048Z,45.61
2018-08-23T00:06:50.523Z,46.08
2018-08-23T00:09:20.832Z,46.55
2018-08-23T00:11:51.242Z,47.13
2018-08-23T00:14:21.592Z,47.44
2018-08-23T00:16:52.281Z,47.16
2018-08-23T00:19:22.599Z,47.76
2018-08-23T00:21:53.185Z,46.83
2018-08-23T00:24:24.732Z,47.65
2018-08-23T00:26:59.366Z,47.61
2018-08-23T00:29:30.807Z,48.52
2018-08-23T00:32:05.339Z,48.52
2018-08-23T00:34:37.877Z,49.03
2018-08-23T00:37:09.126Z,47.98
2018-08-23T00:39:39.400Z,48.94
2018-08-23T00:42:12.239Z,48.99
2018-08-23T00:45:01.399Z,49.16
2018-08-23T00:47:33.053Z,49.12
2018-08-23T00:50:03.482Z,50.00
2018-08-23T00:52:44.937Z,49.24
2018-08-23T00:55:24.910Z,49.68
2018-08-23T00:57:55.613Z,49.67
2018-08-23T01:00:27.242Z,50.38
2018-08-23T01:03:03.738Z,50.46
2018-08-23T01:05:39.398Z,50.53
2018-08-23T01:08:10.230Z,50.59
2018-08-23T01:10:41.390Z,50.73
2018-08-23T01:13:12.364Z,51.08
2018-08-23T01:15:46.019Z,51.23
2018-08-23T01:18:19.248Z,51.66
2018-08-23T01:20:51.155Z,52.10
2018-08-23T01:23:21.948Z,51.65
2018-08-23T01:25:52.692Z,51.98
2018-08-23T01:28:23.267Z,51.95
2018-08-23T01:30:53.765Z,53.02
2018-08-23T01:33:24.220Z,51.91
2018-08-23T01:35:54.713Z,53.06
2018-08-23T01:38:25.045Z,53.55
2018-08-23T01:41:00.160Z,52.78
2018-08-23T01:43:30.604Z,53.10
2018-08-23T01:46:00.940Z,52.76
2018-08-23T01:48:31.589Z,53.10
2018-08-23T01:51:02.949Z,54.14
2018-08-23T01:53:39.103Z,54.93
2018-08-23T01:56:09.805Z,55.72
2018-08-23T01:58:40.379Z,55.75
2018-08-23T02:01:17.487Z,56.36
2018-08-23T02:03:47.993Z,55.68
2018-08-23T02:06:18.625Z,56.40
2018-08-23T02:08:49.054Z,57.36
2018-08-23T02:11:19.372Z,58.50
2018-08-23T02:13:50.737Z,59.30
2018-08-23T02:16:21.133Z,60.92
2018-08-23T02:18:51.729Z,61.03
2018-08-23T02:21:22.111Z,60.99
2018-08-23T02:23:53.571Z,61.58
2018-08-23T02:26:23.977Z,62.16
2018-08-23T02:28:54.362Z,62.86
2018-08-23T02:31:24.760Z,63.09
2018-08-23T02:33:55.119Z,62.76
2018-08-23T02:36:25.724Z,63.85
2018-08-23T02:39:03.615Z,63.93
2018-08-23T02:41:33.953Z,64.32
2018-08-23T02:44:04.412Z,65.06
2018-08-23T02:46:35.009Z,64.28
2018-08-23T02:49:05.496Z,64.75
2018-08-23T02:51:43.768Z,65.05
2018-08-23T02:54:15.529Z,65.47
2018-08-23T02:56:50.796Z,65.81
2018-08-23T02:59:21.347Z,65.82
2018-08-23T03:01:51.990Z,67.12
2018-08-23T03:04:24.556Z,67.31
2018-08-23T03:07:02.792Z,67.42
2018-08-23T03:09:35.322Z,67.66
2018-08-23T03:12:23.979Z,68.33
2018-08-23T03:14:54.399Z,68.63
2018-08-23T03:17:30.779Z,68.46
2018-08-23T03:20:07.576Z,68.52
2018-08-23T03:22:38.412Z,69.28
2018-08-23T03:25:14.131Z,68.97
2018-08-23T03:27:44.627Z,69.11
2018-08-23T03:30:16.301Z,68.67
2018-08-23T03:32:46.676Z,69.14
2018-08-23T03:35:17.132Z,68.76
2018-08-23T03:37:47.596Z,70.09
2018-08-23T03:40:18.315Z,70.19
2018-08-23T03:42:48.763Z,69.95
2018-08-23T03:45:24.328Z,70.06
2018-08-23T03:47:55.828Z,70.52
2018-08-23T03:50:26.480Z,70.89
2018-08-23T03:52:57.665Z,70.88
2018-08-23T03:55:28.133Z,71.13
2018-08-23T03:58:03.281Z,71.34
2018-08-23T04:00:39.596Z,70.69
2018-08-23T04:03:15.243Z,71.62
2018-08-23T04:05:45.736Z,71.55
2018-08-23T04:08:16.202Z,71.39
2018-08-23T04:10:46.676Z,71.64
2018-08-23T04:13:16.946Z,70.66
2018-08-23T04:15:47.338Z,70.84
2018-08-23T04:18:18.292Z,71.61
2018-08-23T04:20:56.473Z,71.28
2018-08-23T04:23:27.175Z,71.79
2018-08-23T04:25:57.577Z,71.60
2018-08-23T04:28:27.913Z,71.54
2018-08-23T04:30:58.392Z,70.85
2018-08-23T04:33:28.681Z,71.45
2018-08-23T04:35:59.043Z,70.83
2018-08-23T04:38:29.419Z,71.27
2018-08-23T04:41:09.791Z,70.62
2018-08-23T04:43:40.132Z,70.90
2018-08-23T04:46:17.536Z,70.23
2018-08-23T04:48:47.965Z,70.78
2018-08-23T04:51:18.305Z,70.33
2018-08-23T04:53:48.815Z,70.33
2018-08-23T04:56:19.277Z,70.32
2018-08-23T04:58:49.779Z,70.04
2018-08-23T05:01:20.256Z,69.91
2018-08-23T05:03:50.744Z,70.51
2018-08-23T05:06:21.083Z,69.22
2018-08-23T05:08:51.804Z,69.62
2018-08-23T05:11:22.210Z,69.90
2018-08-23T05:13:52.591Z,69.56
2018-08-23T05:16:23.071Z,68.97
2018-08-23T05:18:53.535Z,68.86
2018-08-23T05:21:24.096Z,67.46
2018-08-23T05:23:58.680Z,67.15
2018-08-23T05:26:29.351Z,64.64
2018-08-23T05:29:05.232Z,62.12
2018-08-23T05:31:35.688Z,60.85
2018-08-23T05:34:09.076Z,59.07
2018-08-23T05:36:39.455Z,58.09
2018-08-23T05:39:10.992Z,56.79
2018-08-23T05:41:41.288Z,55.57
2018-08-23T05:44:15.848Z,55.44
2018-08-23T05:46:51.082Z,53.62
2018-08-23T05:49:21.468Z,53.31
2018-08-23T05:51:51.888Z,52.23
2018-08-23T05:54:22.456Z,51.84
2018-08-23T05:56:52.844Z,51.61
2018-08-23T05:59:25.503Z,50.82
2018-08-23T06:01:55.907Z,51.14
2018-08-23T06:04:40.479Z,51.07
2018-08-23T06:07:10.963Z,49.13
2018-08-23T06:09:43.897Z,50.22
2018-08-23T06:12:14.315Z,47.95
2018-08-23T06:14:44.764Z,48.11
2018-08-23T06:17:15.131Z,48.32
2018-08-23T06:19:45.502Z,47.94
2018-08-23T06:22:15.836Z,48.14
2018-08-23T06:24:47.101Z,47.30
2018-08-23T06:27:17.426Z,47.14
2018-08-23T06:29:47.828Z,46.09
2018-08-23T06:32:18.244Z,46.79
2018-08-23T06:34:53.606Z,45.26
2018-08-23T06:37:24.157Z,44.68
2018-08-23T06:39:54.341Z,44.11
2018-08-23T06:42:45.988Z,44.25
2018-08-23T06:45:16.439Z,43.99
2018-08-23T06:47:50.382Z,44.05
2018-08-23T06:50:24.537Z,43.80
2018-08-23T06:52:55.033Z,41.45
2018-08-23T06:55:33.603Z,41.79
2018-08-23T06:58:04.766Z,41.24
2018-08-23T07:00:35.152Z,42.52
2018-08-23T07:03:06.765Z,42.35
2018-08-23T07:05:37.274Z,41.37
2018-08-23T07:08:08.029Z,41.27
2018-08-23T07:10:38.485Z,41.68
2018-08-23T07:13:09.124Z,40.46
2018-08-23T07:15:41.348Z,40.29
2018-08-23T07:18:16.356Z,42.51
2018-08-23T07:20:46.705Z,41.07
2018-08-23T07:23:31.209Z,39.74
2018-08-23T07:26:01.592Z,39.87
2018-08-23T07:28:32.385Z,38.29
2018-08-23T07:31:02.729Z,37.79
2018-08-23T07:33:35.224Z,38.82
2018-08-23T07:36:22.753Z,38.35
2018-08-23T07:38:53.191Z,38.95
2018-08-23T07:41:23.576Z,39.16
2018-08-23T07:43:53.948Z,38.40
2018-08-23T07:46:24.453Z,39.46
2018-08-23T07:48:54.707Z,38.79
2018-08-23T07:51:25.886Z,38.25
2018-08-23T07:53:58.784Z,38.41
2018-08-23T07:56:29.341Z,37.70
2018-08-23T07:58:59.637Z,38.83
2018-08-23T08:01:31.260Z,39.54
2018-08-23T08:04:01.725Z,39.71
2018-08-23T08:06:32.124Z,39.71
2018-08-23T08:09:02.461Z,37.40
2018-08-23T08:11:52.957Z,36.99
2018-08-23T08:14:28.604Z,37.86
2018-08-23T08:17:18.167Z,39.39
2018-08-23T08:19:53.256Z,38.09
2018-08-23T08:22:23.656Z,37.73
2018-08-23T08:25:10.487Z,37.46
2018-08-23T08:27:41.437Z,38.16
2018-08-23T08:30:20.105Z,37.76
2018-08-23T08:32:50.681Z,38.11
2018-08-23T08:35:21.438Z,38.76
2018-08-23T08:37:51.902Z,38.62
2018-08-23T08:40:23.825Z,39.39
2018-08-23T08:42:54.328Z,38.04
2018-08-23T08:45:28.404Z,39.20
2018-08-23T08:48:24.044Z,39.66
2018-08-23T08:51:24.342Z,39.16
2018-08-23T08:53:55.813Z,38.11
2018-08-23T08:56:58.914Z,39.26
2018-08-23T08:59:32.272Z,39.98
2018-08-23T09:02:02.777Z,39.98
2018-08-23T09:04:36.816Z,40.45
2018-08-23T09:07:07.292Z,39.51
2018-08-23T09:09:38.794Z,38.31
2018-08-23T09:12:13.791Z,39.08
2018-08-23T09:14:44.306Z,38.76
2018-08-23T09:17:36.412Z,40.05
2018-08-23T09:20:10.242Z,40.21
2018-08-23T09:22:58.211Z,39.53
2018-08-23T09:25:34.848Z,40.30
2018-08-23T09:28:05.472Z,40.29
2018-08-23T09:30:35.857Z,39.57
2018-08-23T09:33:09.246Z,39.48
2018-08-23T09:35:39.795Z,39.44
2018-08-23T09:38:14.272Z,39.28
2018-08-23T09:40:44.843Z,38.58
2018-08-23T09:43:15.136Z,40.25
2018-08-23T09:45:45.622Z,40.07
2018-08-23T09:48:16.133Z,38.56
2018-08-23T09:50:46.855Z,39.91
2018-08-23T09:53:22.261Z,38.73
2018-08-23T09:55:53.424Z,38.40
2018-08-23T09:58:28.916Z,39.31
2018-08-23T10:01:04.262Z,39.68
2018-08-23T10:03:39.668Z,38.61
2018-08-23T10:06:14.884Z,39.74
2018-08-23T10:08:51.257Z,40.11
2018-08-23T10:11:26.528Z,38.20
2018-08-23T10:14:15.682Z,38.75
2018-08-23T10:16:51.077Z,37.85
2018-08-23T10:19:26.513Z,37.53
2018-08-23T10:22:02.156Z,38.90
2018-08-23T10:24:34.745Z,38.94
2018-08-23T10:27:05.301Z,38.37
2018-08-23T10:29:35.572Z,39.25
2018-08-23T10:32:06.288Z,39.23
2018-08-23T10:34:36.640Z,38.79
2018-08-23T10:37:07.228Z,38.54
2018-08-23T10:39:37.718Z,38.22
2018-08-23T10:42:12.167Z,38.77
2018-08-23T10:44:42.592Z,39.09
2018-08-23T10:47:16.900Z,39.09
2018-08-23T10:49:47.103Z,39.22
2018-08-23T10:52:17.596Z,38.54
2018-08-23T10:54:47.978Z,38.61
2018-08-23T10:57:19.336Z,37.41
2018-08-23T10:59:49.830Z,38.42
2018-08-23T11:02:20.218Z,37.14
2018-08-23T11:04:50.612Z,38.46
2018-08-23T11:07:25.129Z,37.55
2018-08-23T11:11:02.693Z,37.57
2018-08-23T11:13:37.964Z,37.86
2018-08-23T11:16:13.449Z,37.17
2018-08-23T11:18:49.946Z,36.85
2018-08-23T11:21:20.532Z,37.78
2018-08-23T11:23:51.120Z,37.81
2018-08-23T11:26:23.832Z,37.28
2018-08-23T11:28:54.228Z,37.14
2018-08-23T11:31:30.752Z,37.38
2018-08-23T11:34:01.039Z,37.48
2018-08-23T11:36:31.491Z,37.69
2018-08-23T11:39:01.796Z,37.57
2018-08-23T11:41:32.456Z,36.96
2018-08-23T11:44:02.856Z,38.07
2018-08-23T11:46:33.311Z,36.21
2018-08-23T11:49:03.710Z,36.36
2018-08-23T11:51:34.297Z,37.35
2018-08-23T11:54:04.727Z,38.60
2018-08-23T11:56:35.369Z,38.19
2018-08-23T11:59:05.954Z,38.24
2018-08-23T12:01:36.387Z,38.62
2018-08-23T12:04:06.665Z,36.64
2018-08-23T12:06:37.721Z,36.70
2018-08-23T12:09:09.357Z,36.11
2018-08-23T12:11:39.832Z,36.41
2018-08-23T12:14:10.416Z,36.98
2018-08-23T12:16:40.919Z,36.32
2018-08-23T12:19:11.520Z,36.14
2018-08-23T12:21:41.879Z,36.02
2018-08-23T12:24:12.183Z,36.43
2018-08-23T12:26:42.614Z,36.29
2018-08-23T12:29:13.233Z,37.52
2018-08-23T12:31:43.756Z,38.49
2018-08-23T12:34:14.379Z,39.53
2018-08-23T12:36:49.884Z,39.28
2018-08-23T12:39:25.344Z,38.69
2018-08-23T12:42:00.754Z,36.46
2018-08-23T12:44:32.086Z,34.44
2018-08-23T12:47:05.024Z,34.61
2018-08-23T12:49:35.349Z,33.67
2018-08-23T12:52:05.813Z,33.98
2018-08-23T12:54:36.413Z,34.29
2018-08-23T12:57:06.900Z,34.17
2018-08-23T12:59:37.270Z,34.79
2018-08-23T13:02:07.720Z,34.88
2018-08-23T13:04:38.260Z,34.78
2018-08-23T13:07:08.783Z,34.21
2018-08-23T13:09:39.440Z,35.21
2018-08-23T13:12:09.834Z,36.24
2018-08-23T13:14:40.333Z,35.08
2018-08-23T13:17:10.836Z,34.96
2018-08-23T13:19:41.142Z,34.69
2018-08-23T13:22:11.949Z,33.52
2018-08-23T13:24:47.147Z,33.47
2018-08-23T13:27:17.485Z,32.79
2018-08-23T13:29:47.903Z,33.29
2018-08-23T13:32:18.304Z,32.55
2018-08-23T13:34:48.604Z,32.68
2018-08-23T13:37:29.844Z,32.39
2018-08-23T13:40:00.425Z,32.04
2018-08-23T13:42:30.707Z,31.92
2018-08-23T13:45:01.056Z,32.50
2018-08-23T13:47:31.440Z,31.14
2018-08-23T13:50:01.648Z,31.26
2018-08-23T13:52:32.022Z,31.63
2018-08-23T13:55:02.501Z,30.37
2018-08-23T13:57:33.044Z,32.40
2018-08-23T14:00:03.533Z,31.80
2018-08-23T14:02:33.980Z,33.30
2018-08-23T14:05:04.249Z,32.37
2018-08-23T14:07:35.216Z,32.87
2018-08-23T14:10:05.731Z,32.55
2018-08-23T14:12:36.115Z,32.50
2018-08-23T14:15:06.689Z,32.71
2018-08-23T14:17:36.996Z,31.88
2018-08-23T14:20:07.560Z,30.97
2018-08-23T14:22:38.193Z,31.52
2018-08-23T14:25:08.925Z,31.50
2018-08-23T14:27:39.275Z,32.17
2018-08-23T14:30:09.643Z,32.65
2018-08-23T14:32:41.092Z,31.98
2018-08-23T14:35:11.648Z,31.44
2018-08-23T14:37:42.120Z,31.86
2018-08-23T14:40:12.464Z,31.65
2018-08-23T14:42:42.929Z,31.27
2018-08-23T14:45:15.857Z,32.45
2018-08-23T14:47:51.125Z,32.30
2018-08-23T14:50:21.508Z,31.18
2018-08-23T14:52:51.957Z,32.37
2018-08-23T14:55:27.935Z,32.06
2018-08-23T14:57:58.317Z,32.37
2018-08-23T15:00:28.716Z,33.03
2018-08-23T15:02:59.212Z,32.21
2018-08-23T15:05:29.709Z,33.17
2018-08-23T15:08:00.096Z,33.76
2018-08-23T15:10:30.440Z,33.90
2018-08-23T15:13:00.950Z,33.29
2018-08-23T15:15:36.436Z,33.30
2018-08-23T15:18:06.907Z,34.34
2018-08-23T15:20:37.304Z,34.45
2018-08-23T15:23:08.801Z,35.07
2018-08-23T15:25:39.297Z,35.01
2018-08-23T15:28:09.909Z,34.67
2018-08-23T15:30:40.479Z,35.81
2018-08-23T15:33:11.182Z,35.73
2018-08-23T15:35:41.673Z,35.26
2018-08-23T15:38:12.305Z,36.51
2018-08-23T15:40:50.027Z,35.30
2018-08-23T15:43:20.605Z,35.70
2018-08-23T15:45:51.235Z,35.29
2018-08-23T15:48:21.648Z,36.42
2018-08-23T15:50:52.262Z,36.75
2018-08-23T15:53:22.647Z,35.77
2018-08-23T15:55:53.022Z,36.26
2018-08-23T15:58:23.492Z,36.36
2018-08-23T16:00:53.948Z,36.29
2018-08-23T16:03:24.461Z,37.23
2018-08-23T16:05:54.908Z,37.05
2018-08-23T16:08:25.252Z,36.55
2018-08-23T16:10:55.625Z,37.20
2018-08-23T16:13:25.964Z,37.59
2018-08-23T16:16:01.340Z,37.58
2018-08-23T16:18:36.712Z,36.99
2018-08-23T16:21:06.932Z,37.53
2018-08-23T16:23:37.420Z,37.28
2018-08-23T16:26:07.773Z,37.79
2018-08-23T16:28:38.597Z,37.62
2018-08-23T16:31:09.045Z,37.47
2018-08-23T16:33:39.429Z,37.37
2018-08-23T16:36:09.672Z,37.63
2018-08-23T16:38:40.028Z,38.31
2018-08-23T16:41:10.469Z,37.85
2018-08-23T16:43:40.835Z,37.66
2018-08-23T16:46:11.213Z,37.26
2018-08-23T16:48:41.876Z,37.84
2018-08-23T16:51:12.381Z,37.33
2018-08-23T16:53:42.935Z,37.65
2018-08-23T16:56:13.478Z,37.66
2018-08-23T16:58:44.079Z,39.05
2018-08-23T17:01:14.577Z,38.75
2018-08-23T17:03:49.048Z,38.74
2018-08-23T17:06:19.449Z,39.05
2018-08-23T17:08:49.905Z,39.59
2018-08-23T17:11:20.327Z,39.27
2018-08-23T17:13:51.076Z,38.82
2018-08-23T17:16:27.261Z,40.26
2018-08-23T17:18:57.773Z,40.03
2018-08-23T17:21:28.155Z,39.60
2018-08-23T17:23:58.625Z,40.03
2018-08-23T17:26:29.121Z,39.56
2018-08-23T17:28:59.471Z,40.34
2018-08-23T17:31:29.922Z,40.62
2018-08-23T17:34:00.241Z,39.70
2018-08-23T17:36:30.700Z,40.82
2018-08-23T17:39:01.194Z,41.07
2018-08-23T17:41:31.549Z,41.17
2018-08-23T17:44:01.944Z,40.35
2018-08-23T17:46:32.800Z,41.70
2018-08-23T17:49:03.165Z,41.02
2018-08-23T17:51:33.590Z,41.38
2018-08-23T17:54:04.137Z,41.68
2018-08-23T17:56:34.745Z,42.24
2018-08-23T17:59:05.283Z,43.03
2018-08-23T18:01:35.825Z,42.25
2018-08-23T18:04:06.948Z,42.72
2018-08-23T18:06:37.527Z,43.38
2018-08-23T18:09:11.745Z,43.48
2018-08-23T18:11:42.326Z,43.17
2018-08-23T18:14:12.817Z,44.12
2018-08-23T18:16:48.176Z,43.83
2018-08-23T18:19:18.744Z,44.58
2018-08-23T18:21:49.068Z,44.81
2018-08-23T18:24:19.650Z,43.95
2018-08-23T18:26:50.008Z,44.93
2018-08-23T18:29:20.556Z,44.75
2018-08-23T18:31:50.957Z,44.41
2018-08-23T18:34:21.431Z,45.12
2018-08-23T18:36:51.942Z,46.19
2018-08-23T18:39:22.404Z,45.86
2018-08-23T18:41:52.915Z,46.35
2018-08-23T18:44:23.312Z,46.31
2018-08-23T18:46:53.649Z,47.15
2018-08-23T18:49:24.090Z,47.76
2018-08-23T18:51:55.124Z,48.58
2018-08-23T18:54:25.679Z,48.47
2018-08-23T18:56:56.281Z,48.14
2018-08-23T18:59:26.741Z,48.95
2018-08-23T19:01:59.290Z,48.10
2018-08-23T19:04:29.756Z,48.78
2018-08-23T19:07:00.314Z,48.85
2018-08-23T19:09:30.945Z,49.58
2018-08-23T19:12:02.170Z,50.13
2018-08-23T19:14:32.503Z,49.68
2018-08-23T19:17:07.962Z,50.49
2018-08-23T19:19:38.550Z,50.93
2018-08-23T19:22:09.292Z,50.58
2018-08-23T19:24:39.783Z,50.63
2018-08-23T19:27:10.387Z,50.59
2018-08-23T19:29:40.864Z,51.51
2018-08-23T19:32:11.520Z,50.88
2018-08-23T19:34:54.532Z,51.72
2018-08-23T19:37:37.275Z,51.83
2018-08-23T19:40:07.725Z,52.43
2018-08-23T19:42:42.944Z,52.90
2018-08-23T19:45:20.015Z,52.40
2018-08-23T19:48:00.185Z,53.08
2018-08-23T19:50:39.013Z,53.31
2018-08-23T19:53:18.230Z,53.34
2018-08-23T19:55:58.576Z,52.72
2018-08-23T19:58:38.803Z,52.79
2018-08-23T20:01:23.187Z,53.43
2018-08-23T20:03:53.694Z,54.29
2018-08-23T20:06:24.149Z,54.18
2018-08-23T20:08:54.544Z,54.77
2018-08-23T20:11:25.073Z,55.52
2018-08-23T20:14:03.993Z,55.11
2018-08-23T20:16:41.870Z,56.47
2018-08-23T20:19:21.116Z,56.65
2018-08-23T20:21:59.492Z,56.41
2018-08-23T20:24:37.421Z,56.54
2018-08-23T20:27:15.623Z,57.74
2018-08-23T20:29:46.332Z,56.95
2018-08-23T20:32:16.935Z,56.80
2018-08-23T20:34:47.503Z,58.32
2018-08-23T20:37:17.878Z,58.40
2018-08-23T20:39:48.385Z,58.44
2018-08-23T20:42:18.744Z,58.06
2018-08-23T20:44:49.209Z,57.95
2018-08-23T20:47:19.705Z,57.69
2018-08-23T20:49:50.072Z,57.60
2018-08-23T20:52:20.562Z,58.06
2018-08-23T20:54:50.937Z,57.66
2018-08-23T20:57:21.401Z,58.14
2018-08-23T20:59:51.714Z,58.07
2018-08-23T21:02:22.140Z,58.09
2018-08-23T21:04:52.504Z,57.31
2018-08-23T21:07:23.009Z,57.53
2018-08-23T21:09:53.426Z,57.41
2018-08-23T21:12:23.895Z,57.84
2018-08-23T21:14:54.236Z,57.54
2018-08-23T21:17:24.620Z,57.13
2018-08-23T21:19:55.126Z,57.68
2018-08-23T21:22:25.709Z,57.30
2018-08-23T21:24:56.165Z,57.17
2018-08-23T21:27:26.460Z,57.32
2018-08-23T21:29:56.885Z,57.03
2018-08-23T21:32:27.322Z,57.77
2018-08-23T21:34:57.647Z,57.63
2018-08-23T21:37:27.852Z,56.33
2018-08-23T21:39:58.212Z,56.97
2018-08-23T21:42:28.529Z,56.54
2018-08-23T21:44:58.847Z,56.56
2018-08-23T21:47:29.238Z,57.34
2018-08-23T21:49:59.505Z,56.76
2018-08-23T21:52:29.969Z,57.40
2018-08-23T21:55:00.372Z,56.93
2018-08-23T21:57:30.840Z,56.87
2018-08-23T22:00:01.289Z,57.70
2018-08-23T22:02:31.601Z,57.59
2018-08-23T22:05:02.184Z,57.34
2018-08-23T22:07:32.537Z,57.43
2018-08-23T22:10:02.981Z,57.53
2018-08-23T22:12:33.421Z,57.91
2018-08-23T22:15:04.006Z,57.42
2018-08-23T22:17:34.441Z,58.23
2018-08-23T22:20:05.032Z,58.39
2018-08-23T22:22:35.417Z,58.07
2018-08-23T22:25:05.934Z,58.51
2018-08-23T22:27:36.272Z,58.34
2018-08-23T22:30:07.455Z,58.99
2018-08-23T22:32:37.735Z,58.61
2018-08-23T22:35:08.336Z,58.58
2018-08-23T22:37:38.800Z,59.22
2018-08-23T22:40:09.174Z,58.91
2018-08-23T22:42:39.481Z,59.16
2018-08-23T22:45:09.908Z,60.04
2018-08-23T22:47:40.353Z,59.34
2018-08-23T22:50:10.826Z,59.98
2018-08-23T22:52:41.236Z,59.77
2018-08-23T22:55:11.628Z,60.15
2018-08-23T22:57:42.002Z,60.31
2018-08-23T23:00:12.551Z,62.17
2018-08-23T23:02:43.044Z,61.58
2018-08-23T23:05:13.586Z,61.79
2018-08-23T23:07:44.045Z,62.58
2018-08-23T23:10:14.393Z,61.91
2018-08-23T23:12:44.840Z,62.32
2018-08-23T23:15:20.575Z,62.67
2018-08-23T23:17:51.021Z,62.82
2018-08-23T23:20:21.455Z,62.80
2018-08-23T23:22:51.951Z,63.05
2018-08-23T23:25:22.461Z,63.29
2018-08-23T23:27:52.996Z,62.76
2018-08-23T23:30:23.308Z,62.99
2018-08-23T23:32:53.731Z,62.61
2018-08-23T23:35:24.240Z,62.51
2018-08-23T23:37:54.615Z,62.76
2018-08-23T23:40:25.238Z,62.35
2018-08-23T23:42:55.457Z,61.88
2018-08-23T23:45:25.744Z,62.10
2018-08-23T23:47:56.036Z,61.91
2018-08-23T23:50:26.647Z,61.89
2018-08-23T23:52:57.192Z,62.07
2018-08-23T23:55:27.593Z,62.76
2018-08-23T23:57:58.043Z,61.90
